Time;durP1;ratioP1;P1;durP2;ratioP2;P2;SDS_P1;SDS_P2;PMS_P1;PMS_P2;Temp;Humidity;BMP_temperature;BMP_pressure;BME280_temperature;BME280_humidity;BME280_pressure;Samples;Min_cycle;Max_cycle;Signal;HPM_P1;HPM_P2
2023/12/14 00:02:37;;;;;;;20.90;19.42;;;9.30;86.30;;;;;;12502107;28;20045;-77
2023/12/14 00:08:40;;;;;;;11.43;10.40;;;9.40;86.00;;;;;;12504056;28;20037;-77
2023/12/14 00:14:41;;;;;;;17.30;15.95;;;9.50;85.70;;;;;;12503977;28;20029;-77
2023/12/14 00:20:43;;;;;;;23.50;22.25;;;9.30;85.50;;;;;;12505426;28;20041;-77
2023/12/14 00:26:59;;;;;;;40.30;38.20;;;9.10;85.80;;;;;;12510565;28;20034;-77
2023/12/14 00:33:01;;;;;;;32.20;30.55;;;9.00;86.10;;;;;;12511371;28;20434;-77
2023/12/14 00:39:04;;;;;;;72.07;69.00;;;9.10;85.90;;;;;;12511744;28;20029;-77
2023/12/14 00:45:06;;;;;;;22.13;20.88;;;9.20;85.60;;;;;;12510796;28;20022;-77
2023/12/14 00:51:07;;;;;;;23.48;21.98;;;9.30;85.30;;;;;;12510546;28;20052;-77
2023/12/14 00:57:09;;;;;;;38.65;36.75;;;9.30;85.10;;;;;;12510224;28;20101;-77
2023/12/14 01:03:10;;;;;;;33.90;32.08;;;9.20;85.20;;;;;;12508791;28;20025;-77
2023/12/14 01:09:12;;;;;;;29.40;27.75;;;9.20;85.20;;;;;;12509713;28;20033;-73
2023/12/14 01:15:14;;;;;;;80.53;77.18;;;9.20;84.90;;;;;;12507991;28;20041;-73
2023/12/14 01:21:16;;;;;;;94.20;90.38;;;8.90;85.10;;;;;;12492117;28;20434;-72
2023/12/14 01:27:18;;;;;;;94.25;90.30;;;8.80;85.40;;;;;;12507665;28;20029;-73
2023/12/14 01:33:20;;;;;;;94.78;90.68;;;8.70;85.70;;;;;;12508382;28;20033;-76
2023/12/14 01:39:22;;;;;;;76.93;73.30;;;8.70;85.70;;;;;;12507043;28;20541;-77
2023/12/14 01:45:23;;;;;;;87.47;83.55;;;8.80;85.60;;;;;;12490570;28;20045;-77
2023/12/14 01:51:42;;;;;;;119.20;114.15;;;8.70;85.40;;;;;;12508310;28;20423;-77
2023/12/14 01:57:44;;;;;;;110.30;104.70;;;8.40;85.50;;;;;;12507316;28;20037;-77
2023/12/14 02:03:46;;;;;;;122.10;116.45;;;8.20;85.70;;;;;;12506454;28;20041;-77
2023/12/14 02:09:50;;;;;;;121.60;116.05;;;8.10;85.90;;;;;;12506802;28;20036;-77
2023/12/14 02:15:53;;;;;;;127.25;121.85;;;8.00;86.00;;;;;;12506471;28;20052;-77
2023/12/14 02:21:55;;;;;;;116.80;111.60;;;8.10;86.10;;;;;;12506108;28;20033;-77
2023/12/14 02:27:56;;;;;;;104.20;99.50;;;8.00;86.10;;;;;;12505997;28;20032;-77
2023/12/14 02:33:58;;;;;;;87.50;83.78;;;7.90;86.20;;;;;;12505707;28;20036;-77
2023/12/14 02:40:00;;;;;;;100.60;96.05;;;8.10;86.20;;;;;;12506441;28;20119;-77
2023/12/14 02:46:02;;;;;;;92.72;88.68;;;8.00;86.00;;;;;;12503737;28;20025;-77
2023/12/14 02:52:04;;;;;;;91.53;86.70;;;7.90;86.10;;;;;;12503997;28;20033;-77
2023/12/14 02:58:05;;;;;;;114.63;109.60;;;7.80;86.20;;;;;;12503659;28;20041;-76
2023/12/14 03:04:07;;;;;;;125.47;119.88;;;7.60;85.70;;;;;;12503672;28;20029;-72
2023/12/14 03:10:09;;;;;;;121.45;116.22;;;7.50;86.10;;;;;;12503635;28;20049;-73
2023/12/14 03:16:11;;;;;;;86.32;82.15;;;7.50;86.30;;;;;;12503105;28;20045;-73
2023/12/14 03:22:12;;;;;;;87.60;83.20;;;7.70;86.40;;;;;;12503066;28;20040;-73
2023/12/14 03:28:14;;;;;;;96.03;91.32;;;8.00;86.10;;;;;;12502979;28;20033;-73
2023/12/14 03:34:17;;;;;;;121.40;116.30;;;8.20;85.60;;;;;;12504003;28;20030;-73
2023/12/14 03:40:18;;;;;;;136.45;130.40;;;8.30;85.30;;;;;;12503774;28;20040;-73
2023/12/14 03:46:20;;;;;;;108.78;104.10;;;8.20;85.10;;;;;;12503744;28;20338;-73
2023/12/14 03:52:21;;;;;;;85.90;81.72;;;8.20;85.50;;;;;;12502479;28;20037;-73
2023/12/14 03:58:23;;;;;;;110.55;106.05;;;8.20;85.40;;;;;;12508912;28;20038;-73
2023/12/14 04:04:27;;;;;;;69.38;66.20;;;8.20;85.10;;;;;;12512699;28;20346;-73
2023/12/14 04:10:28;;;;;;;103.00;98.80;;;8.10;85.30;;;;;;12511820;28;20048;-76
2023/12/14 04:16:30;;;;;;;96.22;92.32;;;8.40;85.50;;;;;;12510864;28;20056;-77
2023/12/14 04:22:31;;;;;;;99.15;94.95;;;8.40;85.10;;;;;;12511887;28;20034;-77
2023/12/14 04:28:33;;;;;;;136.85;131.07;;;8.20;85.20;;;;;;12511582;28;20362;-77
2023/12/14 04:34:34;;;;;;;97.30;93.10;;;8.10;85.40;;;;;;12511320;28;20042;-77
2023/12/14 04:40:36;;;;;;;120.97;115.88;;;8.10;85.50;;;;;;12511713;28;20029;-73
2023/12/14 04:46:37;;;;;;;132.40;126.82;;;8.20;85.20;;;;;;12509578;28;20029;-73
2023/12/14 04:52:42;;;;;;;73.70;70.35;;;8.10;85.40;;;;;;12509220;28;20041;-73
2023/12/14 04:58:43;;;;;;;95.28;90.63;;;8.30;84.90;;;;;;12509123;28;20473;-73
2023/12/14 05:04:45;;;;;;;103.05;98.45;;;7.90;84.90;;;;;;12509938;28;20056;-73
2023/12/14 05:10:52;;;;;;;83.03;79.25;;;7.90;85.40;;;;;;12508790;28;20438;-73
2023/12/14 05:16:54;;;;;;;88.20;84.43;;;8.20;85.40;;;;;;12509396;28;20040;-77
2023/12/14 05:22:56;;;;;;;100.35;95.95;;;8.20;84.70;;;;;;12509182;28;20033;-77
2023/12/14 05:28:57;;;;;;;88.63;84.50;;;7.90;85.00;;;;;;12508825;28;20040;-77
2023/12/14 05:34:59;;;;;;;85.10;81.10;;;7.90;85.10;;;;;;12508526;28;20041;-77
2023/12/14 05:41:01;;;;;;;95.57;91.38;;;8.20;85.00;;;;;;12508143;28;20033;-77
2023/12/14 05:47:02;;;;;;;113.97;108.90;;;8.70;84.90;;;;;;12507938;28;20335;-77
2023/12/14 05:53:04;;;;;;;88.70;84.75;;;8.70;83.70;;;;;;12507683;28;20033;-73
2023/12/14 05:59:06;;;;;;;93.68;89.55;;;8.30;84.40;;;;;;12507206;28;20025;-73
2023/12/14 06:05:08;;;;;;;93.70;89.18;;;8.00;84.10;;;;;;12507077;28;20036;-73
2023/12/14 06:11:10;;;;;;;76.60;73.07;;;8.20;84.90;;;;;;12506700;28;20033;-73
2023/12/14 06:17:11;;;;;;;66.78;63.33;;;8.80;84.30;;;;;;12505658;28;20040;-73
2023/12/14 06:23:13;;;;;;;123.78;118.30;;;9.00;83.60;;;;;;12506204;28;20033;-73
2023/12/14 06:29:14;;;;;;;132.63;127.18;;;8.30;83.60;;;;;;12505987;28;20037;-73
2023/12/14 06:35:16;;;;;;;137.75;132.18;;;8.00;84.30;;;;;;12504656;28;20026;-73
2023/12/14 06:41:45;;;;;;;97.40;91.70;;;7.80;84.50;;;;;;12504120;28;20037;-73
2023/12/14 06:47:53;;;;;;;35.05;33.25;;;7.40;84.10;;;;;;12504232;28;20029;-73
2023/12/14 06:53:55;;;;;;;57.00;50.42;;;7.10;85.00;;;;;;12503009;28;20504;-73
2023/12/14 06:59:57;;;;;;;51.17;46.88;;;7.30;85.20;;;;;;12511679;23;20045;-73
2023/12/14 07:05:59;;;;;;;47.25;44.95;;;7.20;85.00;;;;;;12504584;28;20036;-73
2023/12/14 07:12:02;;;;;;;66.22;62.58;;;7.20;85.20;;;;;;12503332;28;20036;-73
2023/12/14 07:18:05;;;;;;;56.15;52.83;;;7.20;85.10;;;;;;12498836;28;20029;-73
2023/12/14 07:24:06;;;;;;;52.88;49.72;;;7.20;84.60;;;;;;12486636;28;20374;-76
2023/12/14 07:30:09;;;;;;;26.83;24.83;;;6.90;84.60;;;;;;12506409;28;20037;-76
2023/12/14 07:36:10;;;;;;;28.85;27.00;;;6.80;85.20;;;;;;12500060;28;20038;-76
2023/12/14 07:42:17;;;;;;;18.13;16.90;;;6.70;85.10;;;;;;12463020;28;20041;-76
2023/12/14 07:48:18;;;;;;;49.30;46.83;;;6.70;85.60;;;;;;12464337;28;20029;-76
2023/12/14 07:54:20;;;;;;;75.60;72.00;;;7.30;85.80;;;;;;12464009;28;20343;-76
2023/12/14 08:00:21;;;;;;;86.25;82.22;;;7.70;85.30;;;;;;12491463;28;20320;-76
2023/12/14 08:06:23;;;;;;;135.80;128.73;;;7.70;85.10;;;;;;12511521;28;20025;-72
2023/12/14 08:12:25;;;;;;;155.05;148.15;;;7.90;85.40;;;;;;12495050;28;20056;-72
2023/12/14 08:18:27;;;;;;;127.05;121.10;;;8.00;85.10;;;;;;12495657;28;20380;-72
2023/12/14 08:24:28;;;;;;;129.68;124.00;;;8.10;85.30;;;;;;12511591;28;20040;-73
2023/12/14 08:30:30;;;;;;;118.10;112.97;;;8.40;85.30;;;;;;12511488;28;20029;-72
2023/12/14 08:36:32;;;;;;;133.32;127.70;;;8.20;84.40;;;;;;12511207;28;20036;-72
2023/12/14 08:42:34;;;;;;;106.00;100.45;;;7.80;84.20;;;;;;12508949;28;20052;-72
2023/12/14 08:48:37;;;;;;;90.70;86.28;;;7.70;85.40;;;;;;12493313;28;20037;-72
2023/12/14 08:54:38;;;;;;;87.65;83.38;;;8.20;85.70;;;;;;12510389;28;20056;-72
2023/12/14 09:00:40;;;;;;;153.18;146.15;;;8.20;85.30;;;;;;12509515;28;20366;-72
2023/12/14 09:06:44;;;;;;;93.72;89.32;;;8.10;85.00;;;;;;12509873;28;20036;-72
2023/12/14 09:12:46;;;;;;;154.10;147.15;;;7.90;85.40;;;;;;12509590;28;20040;-72
2023/12/14 09:18:47;;;;;;;175.18;167.05;;;7.90;85.60;;;;;;12509256;28;20029;-72
2023/12/14 09:24:49;;;;;;;145.07;138.70;;;7.80;85.60;;;;;;12509003;28;20025;-72
2023/12/14 09:30:51;;;;;;;164.75;157.43;;;7.70;85.80;;;;;;12508727;28;20029;-72
2023/12/14 09:36:52;;;;;;;95.88;91.18;;;7.80;85.90;;;;;;12508426;28;20029;-72
2023/12/14 09:42:55;;;;;;;94.65;89.93;;;7.90;86.10;;;;;;12508106;28;20026;-72
2023/12/14 09:48:59;;;;;;;111.30;106.20;;;8.10;86.10;;;;;;12507863;28;20026;-72
2023/12/14 09:55:03;;;;;;;119.03;113.57;;;8.40;86.40;;;;;;12506269;28;20037;-72
2023/12/14 10:01:24;;;;;;;128.15;122.25;;;8.40;85.60;;;;;;12507163;28;20048;-72
2023/12/14 10:07:26;;;;;;;141.70;135.20;;;8.20;85.90;;;;;;12507531;28;20025;-72
2023/12/14 10:13:38;;;;;;;134.38;128.05;;;8.30;86.30;;;;;;12506686;28;20036;-72
2023/12/14 10:19:44;;;;;;;110.32;104.70;;;8.30;86.10;;;;;;12505048;28;20350;-72
2023/12/14 10:25:46;;;;;;;127.45;121.50;;;8.20;86.10;;;;;;12488579;28;20033;-72
2023/12/14 10:31:48;;;;;;;121.75;116.40;;;8.20;86.10;;;;;;12505486;28;20030;-71
2023/12/14 10:37:52;;;;;;;71.40;67.88;;;8.50;86.40;;;;;;12505722;28;20056;-71
2023/12/14 10:43:56;;;;;;;59.97;56.60;;;8.70;86.30;;;;;;12505431;28;20040;-71
2023/12/14 10:50:05;;;;;;;46.35;43.60;;;8.80;86.50;;;;;;12505262;28;20097;-71
2023/12/14 10:56:13;;;;;;;26.60;24.80;;;8.90;86.70;;;;;;12503549;28;20354;-72
2023/12/14 11:02:15;;;;;;;26.75;24.27;;;9.10;86.70;;;;;;12503548;28;20485;-71
2023/12/14 11:08:17;;;;;;;19.15;17.30;;;9.20;86.40;;;;;;12503636;28;20334;-71
2023/12/14 11:14:21;;;;;;;33.45;29.80;;;9.30;86.40;;;;;;12504490;28;20037;-71
2023/12/14 11:20:27;;;;;;;20.85;18.65;;;9.50;86.60;;;;;;12486860;28;20041;-71
2023/12/14 11:26:29;;;;;;;16.20;14.50;;;9.60;86.40;;;;;;12486832;28;20473;-71
2023/12/14 11:32:30;;;;;;;17.10;14.18;;;9.60;86.50;;;;;;12504809;28;20311;-71
2023/12/14 11:38:34;;;;;;;14.75;13.10;;;9.60;86.30;;;;;;12502824;28;20033;-71
2023/12/14 11:44:37;;;;;;;15.63;13.20;;;9.60;86.40;;;;;;12472893;28;20057;-71
2023/12/14 11:50:41;;;;;;;12.95;11.60;;;9.60;86.10;;;;;;12454549;28;20034;-71
2023/12/14 11:56:47;;;;;;;13.30;11.98;;;9.70;86.20;;;;;;12469825;28;20328;-71
2023/12/14 12:02:48;;;;;;;17.02;12.88;;;9.80;86.20;;;;;;12453619;28;20461;-71
2023/12/14 12:08:52;;;;;;;18.88;14.95;;;9.90;86.50;;;;;;12469755;28;20041;-71
2023/12/14 12:15:26;;;;;;;19.92;16.88;;;10.00;86.40;;;;;;12483404;28;20040;-71
2023/12/14 12:21:28;;;;;;;16.40;14.68;;;10.00;86.40;;;;;;12445181;28;20045;-71
2023/12/14 12:27:29;;;;;;;20.83;18.92;;;10.20;86.40;;;;;;12477544;28;20036;-71
2023/12/14 12:33:37;;;;;;;14.10;12.70;;;10.20;86.60;;;;;;12510611;28;20045;-71
2023/12/14 12:39:39;;;;;;;13.13;11.88;;;10.40;86.40;;;;;;12510216;28;20516;-71
2023/12/14 12:45:40;;;;;;;15.60;12.65;;;10.50;86.60;;;;;;12511011;28;20034;-71
2023/12/14 12:51:42;;;;;;;11.18;9.95;;;10.70;86.40;;;;;;12510635;28;20056;-75
2023/12/14 12:57:44;;;;;;;12.00;10.77;;;10.80;86.30;;;;;;12510270;28;20037;-75
2023/12/14 13:03:45;;;;;;;16.05;14.25;;;10.80;86.20;;;;;;12508922;28;20380;-76
2023/12/14 13:09:47;;;;;;;13.93;12.52;;;10.70;85.80;;;;;;12509837;28;20038;-75
2023/12/14 13:15:49;;;;;;;17.98;16.27;;;10.80;85.90;;;;;;12509625;28;20046;-75
2023/12/14 13:21:50;;;;;;;34.50;32.28;;;10.90;86.00;;;;;;12509269;28;20033;-75
2023/12/14 13:27:52;;;;;;;14.38;10.45;;;11.10;86.10;;;;;;12507583;28;20030;-75
2023/12/14 13:33:54;;;;;;;12.85;10.38;;;11.20;86.40;;;;;;12508680;28;20052;-76
2023/12/14 13:39:55;;;;;;;10.82;8.45;;;11.30;86.70;;;;;;12508359;28;20386;-75
2023/12/14 13:45:58;;;;;;;11.95;9.85;;;11.40;86.40;;;;;;12508054;28;20029;-70
2023/12/14 13:52:00;;;;;;;12.70;9.68;;;11.50;86.70;;;;;;12507823;28;20042;-71
2023/12/14 13:58:02;;;;;;;15.05;11.82;;;11.50;86.80;;;;;;12507536;28;20438;-71
2023/12/14 14:04:04;;;;;;;15.60;13.35;;;11.50;86.20;;;;;;12507231;28;20434;-71
2023/12/14 14:10:06;;;;;;;13.65;11.13;;;11.20;86.30;;;;;;12506126;28;20056;-71
2023/12/14 14:16:16;;;;;;;13.93;10.57;;;11.50;86.30;;;;;;12507554;28;20026;-71
2023/12/14 14:22:27;;;;;;;14.40;10.57;;;11.80;85.50;;;;;;12505261;28;20434;-71
2023/12/14 14:28:30;;;;;;;19.15;15.57;;;12.20;85.10;;;;;;12504535;28;20034;-71
2023/12/14 14:34:31;;;;;;;19.60;14.30;;;12.50;84.30;;;;;;12505833;28;20040;-71
2023/12/14 14:40:33;;;;;;;19.20;16.27;;;12.00;84.40;;;;;;12505670;28;20528;-71
2023/12/14 14:46:34;;;;;;;19.67;17.75;;;11.40;84.80;;;;;;12505532;28;20032;-71
2023/12/14 14:52:36;;;;;;;14.88;13.23;;;10.80;85.60;;;;;;12487406;28;20048;-71
2023/12/14 14:58:38;;;;;;;19.83;17.67;;;10.50;86.20;;;;;;12619670;23;20047;-76
2023/12/14 15:04:39;;;;;;;21.65;12.88;;;10.20;86.30;;;;;;12638459;28;20040;-76
2023/12/14 15:10:46;;;;;;;14.27;11.60;;;10.00;86.60;;;;;;12651970;28;20138;-76
2023/12/14 15:16:48;;;;;;;18.52;12.10;;;10.00;86.80;;;;;;12652296;28;20265;-76
2023/12/14 15:22:50;;;;;;;15.70;12.07;;;9.90;86.80;;;;;;12603068;28;20051;-76
2023/12/14 15:28:51;;;;;;;16.70;12.90;;;9.70;86.60;;;;;;12603376;28;20361;-76
2023/12/14 15:34:53;;;;;;;87.10;27.48;;;9.60;86.80;;;;;;12602288;28;20442;-76
2023/12/14 15:40:55;;;;;;;85.40;31.83;;;9.40;86.60;;;;;;12603250;28;20037;-76
2023/12/14 15:46:59;;;;;;;77.00;70.78;;;9.30;86.70;;;;;;12602039;28;20035;-76
2023/12/14 15:53:00;;;;;;;80.03;76.05;;;9.10;86.80;;;;;;12634765;28;20051;-76
2023/12/14 15:59:03;;;;;;;45.28;42.47;;;9.10;87.20;;;;;;12661552;28;20032;-76
2023/12/14 16:05:05;;;;;;;21.13;19.05;;;9.40;87.20;;;;;;12661408;28;20048;-76
2023/12/14 16:11:07;;;;;;;21.52;19.48;;;9.50;86.90;;;;;;12662216;28;20040;-76
2023/12/14 16:17:09;;;;;;;35.50;17.27;;;9.70;86.70;;;;;;12660830;28;20039;-76
2023/12/14 16:23:11;;;;;;;15.23;13.70;;;9.50;86.60;;;;;;12660485;28;20035;-76
2023/12/14 16:29:14;;;;;;;17.63;15.95;;;9.50;87.00;;;;;;12660180;28;20355;-76
2023/12/14 16:35:15;;;;;;;20.50;17.20;;;9.60;87.10;;;;;;12659951;28;20356;-76
2023/12/14 16:41:20;;;;;;;13.18;11.43;;;9.50;86.90;;;;;;12659575;28;20329;-77
2023/12/14 16:47:22;;;;;;;19.10;14.80;;;9.40;87.00;;;;;;12659113;28;20024;-76
2023/12/14 16:53:23;;;;;;;13.32;11.27;;;9.50;87.20;;;;;;12659133;28;20353;-76
2023/12/14 16:59:26;;;;;;;24.30;17.08;;;9.60;87.10;;;;;;12658699;28;20051;-76
2023/12/14 17:05:29;;;;;;;20.25;18.33;;;9.60;87.00;;;;;;12657728;28;20028;-75
2023/12/14 17:11:34;;;;;;;21.98;16.67;;;9.50;87.10;;;;;;12641312;28;20036;-76
2023/12/14 17:17:35;;;;;;;57.17;35.33;;;9.70;87.10;;;;;;12659037;28;20543;-76
2023/12/14 17:23:37;;;;;;;26.38;20.58;;;9.50;87.00;;;;;;12658653;28;20036;-77
2023/12/14 17:29:38;;;;;;;46.47;24.98;;;9.50;87.20;;;;;;12657640;28;20044;-76
2023/12/14 17:35:40;;;;;;;27.30;24.83;;;9.40;87.20;;;;;;12658056;28;20031;-76
2023/12/14 17:41:45;;;;;;;17.35;14.70;;;9.50;87.50;;;;;;12657798;28;20043;-76
2023/12/14 17:47:48;;;;;;;15.15;13.45;;;9.70;87.20;;;;;;12656423;28;20016;-76
2023/12/14 17:53:49;;;;;;;19.42;17.48;;;9.70;87.10;;;;;;12657943;28;20031;-76
2023/12/14 17:59:51;;;;;;;25.67;23.20;;;9.60;87.20;;;;;;12656746;28;20039;-76
2023/12/14 18:05:53;;;;;;;22.90;20.42;;;9.70;87.40;;;;;;12655698;28;20028;-76
2023/12/14 18:11:55;;;;;;;22.45;15.32;;;9.80;87.10;;;;;;12656329;28;20352;-76
2023/12/14 18:17:57;;;;;;;24.85;22.50;;;9.60;86.90;;;;;;12654056;28;20032;-76
2023/12/14 18:23:58;;;;;;;33.20;30.67;;;9.30;87.10;;;;;;12654707;28;20032;-76
2023/12/14 18:30:00;;;;;;;35.10;32.35;;;9.10;87.00;;;;;;12655623;28;20035;-76
2023/12/14 18:36:02;;;;;;;38.97;35.72;;;9.10;87.10;;;;;;12655468;28;20471;-76
2023/12/14 18:42:05;;;;;;;37.38;35.10;;;9.20;87.40;;;;;;12654441;28;20035;-76
2023/12/14 18:48:06;;;;;;;61.13;58.25;;;9.30;86.80;;;;;;12654954;28;20032;-76
2023/12/14 18:54:11;;;;;;;67.30;64.20;;;9.10;86.80;;;;;;12654751;28;20352;-75
2023/12/14 19:00:14;;;;;;;41.17;38.78;;;9.20;87.20;;;;;;12654403;28;20036;-76
2023/12/14 19:06:17;;;;;;;55.10;51.97;;;9.20;86.70;;;;;;12654243;28;20040;-76
2023/12/14 19:12:20;;;;;;;21.45;19.55;;;9.20;87.00;;;;;;12654290;28;20345;-75
2023/12/14 19:18:22;;;;;;;24.42;20.80;;;9.30;87.10;;;;;;12652642;28;20051;-76
2023/12/14 19:24:24;;;;;;;28.63;26.73;;;9.20;86.80;;;;;;12654145;28;20035;-75
2023/12/14 19:30:37;;;;;;;24.73;22.98;;;9.30;86.90;;;;;;12664039;28;20035;-70
2023/12/14 19:36:41;;;;;;;31.35;29.27;;;9.20;86.90;;;;;;12662528;28;20028;-70
2023/12/14 19:42:42;;;;;;;52.53;49.65;;;9.20;87.10;;;;;;12662150;28;20044;-71
2023/12/14 19:48:45;;;;;;;41.53;38.83;;;9.20;87.00;;;;;;12662125;28;20035;-71
2023/12/14 19:54:49;;;;;;;14.15;12.75;;;9.20;87.00;;;;;;12661732;28;20351;-71
2023/12/14 20:00:51;;;;;;;16.13;13.65;;;9.40;87.00;;;;;;12661546;28;20035;-71
2023/12/14 20:06:55;;;;;;;14.05;12.65;;;9.30;87.10;;;;;;12663447;28;20217;-71
2023/12/14 20:12:57;;;;;;;18.02;14.35;;;9.30;86.90;;;;;;12644439;28;20361;-70
2023/12/14 20:19:00;;;;;;;36.22;29.92;;;9.20;86.90;;;;;;12660676;28;20036;-70
2023/12/14 20:25:02;;;;;;;49.83;46.90;;;9.00;86.60;;;;;;12660431;28;20463;-71
2023/12/14 20:31:04;;;;;;;103.93;94.85;;;8.70;86.80;;;;;;12660236;28;20048;-71
2023/12/14 20:37:05;;;;;;;67.55;64.30;;;8.50;86.80;;;;;;12659899;28;20391;-71
2023/12/14 20:43:07;;;;;;;123.32;117.20;;;8.40;87.00;;;;;;12659418;28;20043;-71
2023/12/14 20:49:08;;;;;;;97.43;92.95;;;8.50;87.30;;;;;;12641929;28;20039;-71
2023/12/14 20:55:11;;;;;;;107.10;101.72;;;8.80;87.30;;;;;;12658905;28;20028;-71
2023/12/14 21:01:19;;;;;;;86.05;80.40;;;8.90;86.50;;;;;;12641656;28;20039;-70
2023/12/14 21:07:34;;;;;;;136.63;129.45;;;8.60;86.60;;;;;;12659644;28;20353;-73
2023/12/14 21:13:35;;;;;;;94.68;90.18;;;8.60;87.00;;;;;;12659222;28;20043;-70
2023/12/14 21:19:55;;;;;;;119.80;114.00;;;8.60;86.80;;;;;;12657799;28;20032;-72
2023/12/14 21:26:04;;;;;;;105.10;99.57;;;8.70;86.70;;;;;;12658513;28;20032;-72
2023/12/14 21:32:26;;;;;;;98.90;93.03;;;8.60;86.80;;;;;;12657186;28;20037;-72
2023/12/14 21:38:27;;;;;;;94.78;90.53;;;8.70;86.70;;;;;;12657134;28;20457;-73
2023/12/14 21:44:29;;;;;;;92.95;88.72;;;8.60;86.60;;;;;;12639917;28;20067;-71
2023/12/14 21:50:31;;;;;;;136.00;127.70;;;8.60;86.80;;;;;;12657275;28;20040;-71
2023/12/14 21:56:32;;;;;;;121.63;116.13;;;8.70;86.60;;;;;;12639174;28;20044;-71
2023/12/14 22:02:34;;;;;;;141.05;134.50;;;8.30;86.40;;;;;;12639033;28;20047;-72
2023/12/14 22:08:36;;;;;;;142.35;136.38;;;8.20;86.70;;;;;;12656754;28;20483;-72
2023/12/14 22:14:37;;;;;;;104.55;99.55;;;8.30;86.70;;;;;;12655480;28;20043;-72
2023/12/14 22:20:39;;;;;;;112.47;106.95;;;8.30;86.80;;;;;;12638583;28;20086;-72
2023/12/14 22:27:11;;;;;;;78.18;73.97;;;8.50;87.20;;;;;;12655851;28;20094;-72
2023/12/14 22:33:12;;;;;;;90.00;85.55;;;8.50;86.70;;;;;;12637613;28;20032;-73
2023/12/14 22:39:14;;;;;;;107.00;102.43;;;8.50;86.60;;;;;;12656209;28;20036;-71
2023/12/14 22:45:16;;;;;;;74.63;71.28;;;8.70;86.50;;;;;;12654070;28;20048;-72
2023/12/14 22:51:18;;;;;;;73.85;69.80;;;8.70;86.30;;;;;;12654844;28;20036;-72
2023/12/14 22:57:20;;;;;;;80.72;76.28;;;8.50;86.00;;;;;;12635453;22;20040;-72
2023/12/14 23:03:22;;;;;;;74.97;70.47;;;8.20;86.20;;;;;;12585716;28;20460;-72
2023/12/14 23:09:46;;;;;;;82.10;78.00;;;8.10;86.50;;;;;;12569854;28;20110;-72
2023/12/14 23:15:48;;;;;;;83.63;78.35;;;8.00;86.60;;;;;;12603868;28;20040;-72
2023/12/14 23:21:51;;;;;;;133.00;126.78;;;8.10;86.80;;;;;;12603670;28;20028;-72
2023/12/14 23:27:52;;;;;;;153.27;146.13;;;8.10;86.20;;;;;;12603670;28;20357;-72
2023/12/14 23:33:54;;;;;;;95.15;89.22;;;8.00;86.40;;;;;;12603591;28;20423;-72
2023/12/14 23:46:18;;;;;;;117.68;112.13;;;8.20;86.20;;;;;;12603242;28;20044;-72
2023/12/14 23:52:19;;;;;;;91.50;87.18;;;8.00;86.10;;;;;;12585171;28;20052;-72
2023/12/14 23:58:21;;;;;;;90.63;86.45;;;8.20;86.30;;;;;;12602851;28;20036;-72
